Tuesday, October 21, 2014
16:51 UTC
  |  Log In   |  Register Free
Airport Search:

Pearson Field Airport
(KVUO)

Pearson Field Airport Diagram
No Airport Diagram Available

FAA data valid effective September 18, 2014 - November 13, 2014 (unless otherwise noted).

 
 
 
 
 
 
 
 
 
 
 
 
 
 

Current Aviation Weather for Pearson Field Airport (KVUO)

The most recent METAR observation for KVUO was updated at: 1621
METAR Summary (Translated METAR)
KVUO
211601Z AUTO VRB06KT 10SM SCT015 OVC060 13/09 A2998 RMK AO2 T01330094
KPDX
211553Z 18013KT 10SM FEW018 BKN070 BKN160 13/10 A2997 RMK AO2 SLP148 T01330100
(3.1 nm SE from KVUO)
KTTD
211553Z 08003KT 10SM FEW026 BKN080 BKN100 13/09 A2997 RMK AO2 SLP149 T01330094
(11.5 nm SE from KVUO)
TAF Summary (Translated TAF)
KPDX
(3.1 nm SE from KVUO)
211455Z 2115/2212 19012KT P6SM VCSH SCT025 BKN050 BKN080 FM211900 18012KT P6SM SCT025 BKN050 BKN100 FM220300 15012KT P6SM -RA OVC060 FM220600 15015KT P6SM -RA OVC045
KTTD
(11.5 nm SE from KVUO)
211136Z 2112/2212 18006KT P6SM VCSH BKN050 BKN080 FM211900 18004KT P6SM BKN060 BKN100 FM220300 11007KT P6SM -RA OVC060 FM220600 12011KT P6SM -RA OVC045
  Airport Weather Conditions for KVUO

 Current Weather at VUO
56° F
Overcast
Variable winds at 6.9 mph
VUO NOAA Radar

Pressure: 29.97 in
Humidity: 77%
Wind: Variable at 6.9 MPH (6 KT)
Dew Point: 48.9°F
Visibility: 10.00 mi


Airport Weather Forecast for KVUO

Translated METAR and TAF for KVUO
Translated METAR for KVUO (1646 UTC 21 October 2014)
found at http://aviationweather.gov/adds/metars/
 
METAR text: KVUO 211601Z AUTO VRB06KT 10SM SCT015 OVC060 13/09 A2998 RMK AO2 T01330094
Conditions at: KVUO (VANCOUVER , WA, US) observed 1601 UTC 21 October 2014
Temperature: 13.3°C (56°F)
Dewpoint: 9.4°C (49°F) [RH = 77%]
Pressure (altimeter): 29.98 inches Hg (1015.3 mb)
Winds: variable direction winds at 7 MPH (6 knots; 3.1 m/s)
Visibility: 10 or more miles (16+ km)
Ceiling: 6000 feet AGL
Clouds: scattered clouds at 1500 feet AGL
overcast cloud deck at 6000 feet AGL
Weather: automated observation with no human augmentation;
there may or may not be significant weather present at this time
Translated TAF for KVUO

There is no translated TAF available for this airport

Find All Airport Services Find A Hotel Find A Rental Car Find A Golf Course Find A Restaurant $100 Hamburger



FBO's on the Field
FBO Company Facility Photos Services Transportation Aviation Fuel Prices: Prices include tax
Catering Weather Repair Courtesy Rental Type 100LL JetA JetA+ MOGAS 8087
 
Aero Maintenance Inc

This FBO has not yet been rated
FS:AirBP
Last Updated: Sep-25
Login to update fuel prices
SS:
Contact Aero Maintenance IncMore FBO Information
 
Add another FBO Facility Photos Catering Weather Repair Courtesy Rental Type 100LL JetA JetA+ MOGAS 8087
Services Transportation Aviation Fuel Prices: Prices include tax


model-print
model-print
model-print
model-print